الصفحة الرئيسية
METAR-TAF:

METAR-TAF

مطار :

Sand Point, ألاسكا, الولايات المتحدة

دائرة عرض: 55-19N, خط طول: 160-31W, ارتفاع: 7 متر

مراقبة الطقس الحالي

تاريخ ووقت الإصدار 1ساعة و 0 دقيقة قبل الساعة 23:56UTC
ريح 6 عقدة من الجنوب
درجة الحرارة 9°درجة مئوية
الرطوبة 71%
ضغط 1021 hPa
الرؤية: 16.1 كم
غيوم قليلة على ارتفاع 2000 قدم
غيوم متفرقة على ارتفاع 3000 قدم
غيوم متفرقة على ارتفاع 7000 قدم

METAR: PASD 122356Z 19006KT 10SM FEW020 SCT030 SCT070 09/04 A3015 RMK AO2 SLP211 6//// T00890039 10100 20056 51004 PNO $

زمن: 16:56 (00:56 UTC)

توقعات

تاريخ ووقت الإصدار 1ساعة و 19 دقيقة قبل الساعة 23:37UTC
التوقعات صالحة من13 الساعة 00 UTC إلى 13 الساعة 24 UTC
ريح 8 عقدة من الشمال
الرؤية: 10 كم
غيوم قليلة على ارتفاع 11000 قدم
من 13 الساعة 2000 UTC
ريح 6 عقدة من الشرق/الجنوب الشرقي
الرؤية: 10 كم
غيوم متفرقة على ارتفاع 25000 قدم
من 13 الساعة 2100 UTC
ريح 7 عقدة من الجنوب الشرقي
الرؤية: 10 كم
غيوم مفككة على ارتفاع 2500 قدم

TAF: PASD 122337Z 1300/1324 01008KT P6SM FEW110 FM132000 12006KT P6SM SCT250 FM132100 13007KT P6SM BKN025

أرصاد الطقس والتوقعات من أكثر من 4000 مطار (تقارير الطقس للمطار METAR والتنبؤ بالطقس بالمطارTAF).

المحطات المتاحة هي النقط الصفراء والحمراء على الخريطة.

حرك المؤشر فوق النقطة لمعرفة اسم المحطة.

ثم انقر لمعرفة أرصاد وتوقعات الطقس.

لتغيير الخارطة: اضغط على الأزرار الخضراء مع رمز الصليب الأسود للتكبير. على الزر الأخضر مع شرطة للتصغير، أو على الأسهم الخضراء للخرائط المجاورة.


METAR-TAF: